createdAt,value
2023-01-13T00:01:31.984Z,9.10
2023-01-13T00:04:00.347Z,9.10
2023-01-13T00:06:29.415Z,9.10
2023-01-13T00:08:57.880Z,9.10
2023-01-13T00:11:26.479Z,9.00
2023-01-13T00:13:56.116Z,9.10
2023-01-13T00:16:24.238Z,9.10
2023-01-13T00:18:52.336Z,9.10
2023-01-13T00:21:23.392Z,9.00
2023-01-13T00:23:54.258Z,9.00
2023-01-13T00:26:26.699Z,9.00
2023-01-13T00:29:00.035Z,9.00
2023-01-13T00:31:30.357Z,9.00
2023-01-13T00:34:00.351Z,8.90
2023-01-13T00:36:29.577Z,9.00
2023-01-13T00:38:58.121Z,9.00
2023-01-13T00:41:28.155Z,9.00
2023-01-13T00:43:55.351Z,9.00
2023-01-13T00:46:24.916Z,9.00
2023-01-13T00:48:52.985Z,9.00
2023-01-13T00:51:23.385Z,9.00
2023-01-13T00:53:53.129Z,10.20
2023-01-13T00:56:38.997Z,9.10
2023-01-13T00:59:07.963Z,9.10
2023-01-13T01:01:37.530Z,9.10
2023-01-13T01:04:05.918Z,9.10
2023-01-13T01:06:34.081Z,9.10
2023-01-13T01:09:02.535Z,9.20
2023-01-13T01:11:33.851Z,9.20
2023-01-13T01:14:05.028Z,9.20
2023-01-13T01:16:35.241Z,9.10
2023-01-13T01:19:05.190Z,9.10
2023-01-13T01:21:35.125Z,9.10
2023-01-13T01:24:05.208Z,9.10
2023-01-13T01:26:33.930Z,9.20
2023-01-13T01:29:02.503Z,9.20
2023-01-13T01:31:33.465Z,9.20
2023-01-13T01:34:03.961Z,9.20
2023-01-13T01:36:32.398Z,9.10
2023-01-13T01:39:01.537Z,9.10
2023-01-13T01:41:33.791Z,9.20
2023-01-13T01:44:07.200Z,9.20
2023-01-13T01:46:39.183Z,9.20
2023-01-13T01:49:17.826Z,9.30
2023-01-13T01:51:50.990Z,9.30
2023-01-13T01:54:26.620Z,9.30
2023-01-13T01:56:55.423Z,9.30
2023-01-13T01:59:30.573Z,9.30
2023-01-13T02:01:58.650Z,9.30
2023-01-13T02:04:35.053Z,9.30
2023-01-13T02:07:04.846Z,9.40
2023-01-13T02:09:34.364Z,9.40
2023-01-13T02:12:19.776Z,9.30
2023-01-13T02:14:48.246Z,9.30
2023-01-13T02:17:34.906Z,9.30
2023-01-13T02:20:39.459Z,9.30
2023-01-13T02:24:24.135Z,9.40
2023-01-13T02:27:32.739Z,9.40
2023-01-13T02:30:44.163Z,9.40
2023-01-13T02:33:37.645Z,9.50
2023-01-13T02:36:16.836Z,9.50
2023-01-13T02:38:53.507Z,9.50
2023-01-13T02:41:50.652Z,9.50
2023-01-13T02:44:27.006Z,9.60
2023-01-13T02:47:05.014Z,9.60
2023-01-13T02:49:40.515Z,9.60
2023-01-13T02:52:16.023Z,9.70
2023-01-13T02:54:50.277Z,9.70
2023-01-13T02:57:20.909Z,9.80
2023-01-13T02:59:50.220Z,9.80
2023-01-13T03:02:23.303Z,9.70
2023-01-13T03:04:57.640Z,9.80
2023-01-13T03:08:10.424Z,9.80
2023-01-13T03:10:58.119Z,9.80
2023-01-13T03:13:56.317Z,10.00
2023-01-13T03:16:39.250Z,10.00
2023-01-13T03:19:25.713Z,10.00
2023-01-13T03:22:00.264Z,10.00
2023-01-13T03:24:37.783Z,10.00
2023-01-13T03:27:12.354Z,10.00
2023-01-13T03:29:47.173Z,9.90
2023-01-13T03:32:24.103Z,10.00
2023-01-13T03:35:00.860Z,10.10
2023-01-13T03:37:35.927Z,10.10
2023-01-13T03:40:12.396Z,10.10
2023-01-13T03:43:05.928Z,10.10
2023-01-13T03:45:37.662Z,10.00
2023-01-13T03:48:14.300Z,10.00
2023-01-13T03:50:51.561Z,10.00
2023-01-13T03:53:27.971Z,10.10
2023-01-13T03:56:08.136Z,10.10
2023-01-13T03:58:44.167Z,10.10
2023-01-13T04:01:19.919Z,10.00
2023-01-13T04:03:58.286Z,10.10
2023-01-13T04:06:39.056Z,10.00
2023-01-13T04:09:17.586Z,10.10
2023-01-13T04:11:53.522Z,10.10
2023-01-13T04:14:24.233Z,10.20
2023-01-13T04:16:52.719Z,10.30
2023-01-13T04:19:20.618Z,10.30
2023-01-13T04:21:49.839Z,10.30
2023-01-13T04:24:17.781Z,10.20
2023-01-13T04:26:45.641Z,10.10
2023-01-13T04:29:15.509Z,10.10
2023-01-13T04:31:43.866Z,10.10
2023-01-13T04:34:12.210Z,10.10
2023-01-13T04:36:40.191Z,10.00
2023-01-13T04:39:09.376Z,10.00
2023-01-13T04:41:51.205Z,9.90
2023-01-13T04:44:19.078Z,9.80
2023-01-13T04:46:47.387Z,9.70
2023-01-13T04:49:15.657Z,9.60
2023-01-13T04:51:43.537Z,9.50
2023-01-13T04:54:13.121Z,9.60
2023-01-13T04:56:41.013Z,9.70
2023-01-13T04:59:10.769Z,9.50
2023-01-13T05:01:38.924Z,9.40
2023-01-13T05:04:08.607Z,9.40
2023-01-13T05:06:36.467Z,9.30
2023-01-13T05:09:04.656Z,9.30
2023-01-13T05:11:51.957Z,9.20
2023-01-13T05:14:37.551Z,9.20
2023-01-13T05:17:05.760Z,9.20
2023-01-13T05:19:36.205Z,9.30
2023-01-13T05:22:22.372Z,9.20
2023-01-13T05:25:08.046Z,9.10
2023-01-13T05:27:37.583Z,9.00
2023-01-13T05:30:07.415Z,8.80
2023-01-13T05:32:35.405Z,8.70
2023-01-13T05:35:03.583Z,8.60
2023-01-13T05:37:31.506Z,8.50
2023-01-13T05:40:16.039Z,8.60
2023-01-13T05:43:03.051Z,8.60
2023-01-13T05:45:32.320Z,8.60
2023-01-13T05:48:00.214Z,8.60
2023-01-13T05:50:28.074Z,8.70
2023-01-13T05:52:56.019Z,8.70
2023-01-13T05:55:23.876Z,8.70
2023-01-13T05:57:53.106Z,8.70
2023-01-13T06:00:24.557Z,8.80
2023-01-13T06:02:53.214Z,8.80
2023-01-13T06:05:21.095Z,8.70
2023-01-13T06:07:48.948Z,8.60
2023-01-13T06:10:17.591Z,8.50
2023-01-13T06:12:45.451Z,8.50
2023-01-13T06:15:14.780Z,8.40
2023-01-13T06:17:42.783Z,8.40
2023-01-13T06:20:13.730Z,8.30
2023-01-13T06:22:45.589Z,8.30
2023-01-13T06:25:25.248Z,8.30
2023-01-13T06:27:55.066Z,8.20
2023-01-13T06:30:24.489Z,8.00
2023-01-13T06:32:58.832Z,7.90
2023-01-13T06:35:33.761Z,7.80
2023-01-13T06:38:06.752Z,7.70
2023-01-13T06:40:35.777Z,7.80
2023-01-13T06:43:16.910Z,7.80
2023-01-13T06:45:52.972Z,7.90
2023-01-13T06:48:25.358Z,7.90
2023-01-13T06:50:53.290Z,8.00
2023-01-13T06:53:21.479Z,7.90
2023-01-13T06:55:49.337Z,7.90
2023-01-13T06:58:17.574Z,7.90
2023-01-13T07:00:49.603Z,8.00
2023-01-13T07:03:19.788Z,8.00
2023-01-13T07:05:54.543Z,8.00
2023-01-13T07:08:23.595Z,8.10
2023-01-13T07:10:52.828Z,8.80
2023-01-13T07:13:38.977Z,8.10
2023-01-13T07:16:10.436Z,8.10
2023-01-13T07:18:38.789Z,8.10
2023-01-13T07:21:09.281Z,8.10
2023-01-13T07:23:40.524Z,8.00
2023-01-13T07:26:11.026Z,8.00
2023-01-13T07:28:40.243Z,8.10
2023-01-13T07:31:16.338Z,8.00
2023-01-13T07:33:44.899Z,8.00
2023-01-13T07:36:13.315Z,7.90
2023-01-13T07:38:44.213Z,7.90
2023-01-13T07:41:32.002Z,7.90
2023-01-13T07:44:04.731Z,7.90
2023-01-13T07:46:35.082Z,7.80
2023-01-13T07:49:03.295Z,7.80
2023-01-13T07:51:31.759Z,7.70
2023-01-13T07:53:59.672Z,7.70
2023-01-13T07:56:27.631Z,7.70
2023-01-13T07:58:55.564Z,7.70
2023-01-13T08:01:23.982Z,7.70
2023-01-13T08:03:53.242Z,7.60
2023-01-13T08:06:21.218Z,7.60
2023-01-13T08:08:49.104Z,7.70
2023-01-13T08:11:17.080Z,7.80
2023-01-13T08:13:45.229Z,7.90
2023-01-13T08:16:15.992Z,8.20
2023-01-13T08:18:44.399Z,8.30
2023-01-13T08:21:16.304Z,8.30
2023-01-13T08:23:46.330Z,8.20
2023-01-13T08:26:18.086Z,8.10
2023-01-13T08:28:46.680Z,8.00
2023-01-13T08:31:19.774Z,8.20
2023-01-13T08:33:47.849Z,8.30
2023-01-13T08:36:18.436Z,8.40
2023-01-13T08:38:46.689Z,8.40
2023-01-13T08:41:38.546Z,8.30
2023-01-13T08:44:09.073Z,8.30
2023-01-13T08:46:37.514Z,8.60
2023-01-13T08:49:05.615Z,8.80
2023-01-13T08:51:35.205Z,9.10
2023-01-13T08:54:03.460Z,9.40
2023-01-13T08:56:35.592Z,9.70
2023-01-13T08:59:04.163Z,9.90
2023-01-13T09:01:32.202Z,10.00
2023-01-13T09:04:00.241Z,10.00
2023-01-13T09:06:28.182Z,10.00
2023-01-13T09:08:57.449Z,10.00
2023-01-13T09:11:49.028Z,10.20
2023-01-13T09:14:20.939Z,10.40
2023-01-13T09:16:48.872Z,10.70
2023-01-13T09:19:17.116Z,11.00
2023-01-13T09:21:44.995Z,11.20
2023-01-13T09:24:14.376Z,11.50
2023-01-13T09:26:42.248Z,11.40
2023-01-13T09:29:10.148Z,11.20
2023-01-13T09:31:38.047Z,11.20
2023-01-13T09:34:25.492Z,11.10
2023-01-13T09:36:53.985Z,11.00
2023-01-13T09:39:23.375Z,11.00
2023-01-13T09:42:26.950Z,11.00
2023-01-13T09:45:01.665Z,11.00
2023-01-13T09:47:36.547Z,10.80
2023-01-13T09:50:22.558Z,10.90
2023-01-13T09:52:50.798Z,10.90
2023-01-13T09:55:30.935Z,10.90
2023-01-13T09:57:58.997Z,10.70
2023-01-13T10:00:35.004Z,10.60
2023-01-13T10:03:20.382Z,10.30
2023-01-13T10:05:57.371Z,10.00
2023-01-13T10:08:30.559Z,9.90
2023-01-13T10:11:23.764Z,9.90
2023-01-13T10:13:58.118Z,10.00
2023-01-13T10:16:42.101Z,10.00
2023-01-13T10:19:19.847Z,10.00
2023-01-13T10:22:16.623Z,10.00
2023-01-13T10:25:21.479Z,9.40
2023-01-13T10:27:54.866Z,9.80
2023-01-13T10:30:31.310Z,9.70
2023-01-13T10:33:02.304Z,9.60
2023-01-13T10:35:56.731Z,9.70
2023-01-13T10:38:28.665Z,9.70
2023-01-13T10:40:59.724Z,9.60
2023-01-13T10:43:31.084Z,9.60
2023-01-13T10:46:05.159Z,9.50
2023-01-13T10:48:37.903Z,9.50
2023-01-13T10:51:24.507Z,9.60
2023-01-13T10:53:59.072Z,9.70
2023-01-13T10:56:31.258Z,9.80
2023-01-13T10:59:23.235Z,10.00
2023-01-13T11:02:04.048Z,10.10
2023-01-13T11:04:39.481Z,10.10
2023-01-13T11:07:27.528Z,10.10
2023-01-13T11:10:18.878Z,10.20
2023-01-13T11:12:58.333Z,10.20
2023-01-13T11:15:40.699Z,10.20
2023-01-13T11:18:22.726Z,10.10
2023-01-13T11:20:53.930Z,10.10
2023-01-13T11:23:29.860Z,10.10
2023-01-13T11:26:07.862Z,10.10
2023-01-13T11:28:47.009Z,10.10
2023-01-13T11:31:27.504Z,10.10
2023-01-13T11:34:04.402Z,10.20
2023-01-13T11:36:40.162Z,10.30
2023-01-13T11:39:22.241Z,10.30
2023-01-13T11:42:25.655Z,10.20
2023-01-13T11:45:08.119Z,10.10
2023-01-13T11:47:37.849Z,10.10
2023-01-13T11:50:17.275Z,10.00
2023-01-13T11:53:17.014Z,9.90
2023-01-13T11:55:59.527Z,9.80
2023-01-13T11:58:55.388Z,9.70
2023-01-13T12:01:50.038Z,9.80
2023-01-13T12:04:29.025Z,9.90
2023-01-13T12:07:14.436Z,9.90
2023-01-13T12:10:00.304Z,9.90
2023-01-13T12:12:48.190Z,9.80
2023-01-13T12:15:57.020Z,9.70
2023-01-13T12:19:07.378Z,9.80
2023-01-13T12:21:41.170Z,9.80
2023-01-13T12:24:23.680Z,9.80
2023-01-13T12:26:58.911Z,9.80
2023-01-13T12:29:34.349Z,9.70
2023-01-13T12:32:06.945Z,9.60
2023-01-13T12:35:17.955Z,9.50
2023-01-13T12:37:58.288Z,9.40
2023-01-13T12:40:46.899Z,9.30
2023-01-13T12:43:37.675Z,9.40
2023-01-13T12:46:46.039Z,9.40
2023-01-13T12:49:24.558Z,9.50
2023-01-13T12:52:19.740Z,9.70
2023-01-13T12:55:20.273Z,9.80
2023-01-13T12:58:16.832Z,9.80
2023-01-13T13:01:13.489Z,9.80
2023-01-13T13:03:42.254Z,9.90
2023-01-13T13:06:22.949Z,9.70
2023-01-13T13:09:04.169Z,9.40
2023-01-13T13:12:03.367Z,9.20
2023-01-13T13:15:20.756Z,9.10
2023-01-13T13:18:27.431Z,8.80
2023-01-13T13:21:10.172Z,8.50
2023-01-13T13:24:02.956Z,8.10
2023-01-13T13:26:45.626Z,7.90
2023-01-13T13:29:29.764Z,7.80
2023-01-13T13:32:42.901Z,7.70
2023-01-13T13:35:43.807Z,7.70
2023-01-13T13:38:49.155Z,7.70
2023-01-13T13:41:40.842Z,7.60
2023-01-13T13:44:35.955Z,7.70
2023-01-13T13:47:06.868Z,7.60
2023-01-13T13:49:41.303Z,7.70
2023-01-13T13:52:20.443Z,7.70
2023-01-13T13:54:52.921Z,7.80
2023-01-13T13:57:28.897Z,7.80
2023-01-13T14:00:01.273Z,7.80
2023-01-13T14:02:32.653Z,7.80
2023-01-13T14:05:20.323Z,7.80
2023-01-13T14:07:51.376Z,7.80
2023-01-13T14:10:24.704Z,7.80
2023-01-13T14:12:53.287Z,7.80
2023-01-13T14:15:32.567Z,7.80
2023-01-13T14:18:05.446Z,7.90
2023-01-13T14:20:35.609Z,9.20
2023-01-13T14:23:05.625Z,7.90
2023-01-13T14:25:39.615Z,8.00
2023-01-13T14:28:25.888Z,8.00
2023-01-13T14:30:57.758Z,8.00
2023-01-13T14:33:37.289Z,8.10
2023-01-13T14:36:12.963Z,8.10
2023-01-13T14:38:41.557Z,8.10
2023-01-13T14:41:20.723Z,8.10
2023-01-13T14:43:54.121Z,8.10
2023-01-13T14:46:25.490Z,8.20
2023-01-13T14:49:01.763Z,8.10
2023-01-13T14:51:32.258Z,8.10
2023-01-13T14:54:00.234Z,8.10
2023-01-13T14:56:50.425Z,8.10
2023-01-13T14:59:44.064Z,8.10
2023-01-13T15:02:42.855Z,8.00
2023-01-13T15:05:42.677Z,7.90
2023-01-13T15:08:39.984Z,7.90
2023-01-13T15:11:21.447Z,7.90
2023-01-13T15:13:58.907Z,7.90
2023-01-13T15:16:29.729Z,7.80
2023-01-13T15:18:59.313Z,7.80
2023-01-13T15:21:27.297Z,7.70
2023-01-13T15:23:55.208Z,7.60
2023-01-13T15:26:26.078Z,7.50
2023-01-13T15:28:56.986Z,7.50
2023-01-13T15:31:26.514Z,7.40
2023-01-13T15:33:55.328Z,7.40
2023-01-13T15:36:28.491Z,7.40
2023-01-13T15:38:57.001Z,7.40
2023-01-13T15:41:43.376Z,7.30
2023-01-13T15:44:31.116Z,7.20
2023-01-13T15:47:02.996Z,7.10
2023-01-13T15:49:36.314Z,7.00
2023-01-13T15:52:18.716Z,6.80
2023-01-13T15:54:46.811Z,6.70
2023-01-13T15:57:23.928Z,6.60
2023-01-13T15:59:55.445Z,6.50
2023-01-13T16:02:25.152Z,6.40
2023-01-13T16:04:54.774Z,6.30
2023-01-13T16:07:26.594Z,6.30
2023-01-13T16:09:54.836Z,6.20
2023-01-13T16:12:22.830Z,6.20
2023-01-13T16:14:50.776Z,6.20
2023-01-13T16:17:22.469Z,6.20
2023-01-13T16:19:51.332Z,6.20
2023-01-13T16:22:19.626Z,6.20
2023-01-13T16:24:49.237Z,6.20
2023-01-13T16:27:21.079Z,6.10
2023-01-13T16:29:50.996Z,6.10
2023-01-13T16:32:20.780Z,6.10
2023-01-13T16:34:49.106Z,6.10
2023-01-13T16:37:21.985Z,6.10
2023-01-13T16:39:51.644Z,6.10
2023-01-13T16:42:20.065Z,6.20
2023-01-13T16:44:49.620Z,6.20
2023-01-13T16:47:19.507Z,6.30
2023-01-13T16:49:47.751Z,6.30
2023-01-13T16:52:15.691Z,6.40
2023-01-13T16:54:44.000Z,6.40
2023-01-13T16:57:15.827Z,6.50
2023-01-13T16:59:43.854Z,6.60
2023-01-13T17:02:20.181Z,6.60
2023-01-13T17:04:48.769Z,6.60
2023-01-13T17:07:18.841Z,6.60
2023-01-13T17:09:46.807Z,6.60
2023-01-13T17:12:16.440Z,6.60
2023-01-13T17:14:44.393Z,6.60
2023-01-13T17:17:23.859Z,6.70
2023-01-13T17:19:52.675Z,6.70
2023-01-13T17:22:21.813Z,6.80
2023-01-13T17:24:49.984Z,6.80
2023-01-13T17:27:21.127Z,6.80
2023-01-13T17:29:49.055Z,6.90
2023-01-13T17:32:19.677Z,6.90
2023-01-13T17:34:48.300Z,6.90
2023-01-13T17:37:17.197Z,7.00
2023-01-13T17:39:48.271Z,7.00
2023-01-13T17:42:16.687Z,7.00
2023-01-13T17:44:46.788Z,7.00
2023-01-13T17:47:14.966Z,7.00
2023-01-13T17:49:43.181Z,6.90
2023-01-13T17:52:11.110Z,6.90
2023-01-13T17:54:39.820Z,6.80
2023-01-13T17:57:07.705Z,6.80
2023-01-13T17:59:35.910Z,6.80
2023-01-13T18:02:05.330Z,6.80
2023-01-13T18:04:33.966Z,6.80
2023-01-13T18:07:01.816Z,6.80
2023-01-13T18:09:30.046Z,6.70
2023-01-13T18:11:58.701Z,6.70
2023-01-13T18:14:26.842Z,6.70
2023-01-13T18:16:54.744Z,6.70
2023-01-13T18:19:46.652Z,6.70
2023-01-13T18:22:32.832Z,6.70
2023-01-13T18:25:18.208Z,6.80
2023-01-13T18:27:46.274Z,7.00
2023-01-13T18:30:15.004Z,6.80
2023-01-13T18:32:43.788Z,6.80
2023-01-13T18:35:13.855Z,6.80
2023-01-13T18:37:42.939Z,6.80
2023-01-13T18:40:14.617Z,6.70
2023-01-13T18:42:54.684Z,6.60
2023-01-13T18:45:26.226Z,6.60
2023-01-13T18:47:55.508Z,6.60
2023-01-13T18:50:25.196Z,6.60
2023-01-13T18:52:53.951Z,6.60
2023-01-13T18:55:22.448Z,6.70
2023-01-13T18:57:51.090Z,6.70
2023-01-13T19:00:22.397Z,6.70
2023-01-13T19:05:38.221Z,6.70
2023-01-13T19:08:06.617Z,6.60
2023-01-13T19:10:34.574Z,6.60
2023-01-13T19:13:02.576Z,6.60
2023-01-13T19:15:31.229Z,6.60
2023-01-13T19:17:59.183Z,6.50
2023-01-13T19:20:27.463Z,6.40
2023-01-13T19:22:57.041Z,6.50
2023-01-13T19:25:25.673Z,6.60
2023-01-13T19:27:53.517Z,6.60
2023-01-13T19:30:21.524Z,6.60
2023-01-13T19:32:49.526Z,6.70
2023-01-13T19:35:17.975Z,6.70
2023-01-13T19:37:46.037Z,6.70
2023-01-13T19:40:15.665Z,6.80
2023-01-13T19:43:02.055Z,6.80
2023-01-13T19:45:31.792Z,6.90
2023-01-13T19:48:04.545Z,6.90
2023-01-13T19:50:35.972Z,6.90
2023-01-13T19:53:04.016Z,6.80
2023-01-13T19:55:34.027Z,6.70
2023-01-13T19:58:02.769Z,6.70
2023-01-13T20:00:33.305Z,6.60
2023-01-13T20:03:03.448Z,6.60
2023-01-13T20:05:31.866Z,6.70
2023-01-13T20:07:59.771Z,6.70
2023-01-13T20:10:30.280Z,6.70
2023-01-13T20:12:59.681Z,6.70
2023-01-13T20:15:27.591Z,6.80
2023-01-13T20:17:56.119Z,6.80
2023-01-13T20:20:25.954Z,6.80
2023-01-13T20:22:54.417Z,6.80
2023-01-13T20:25:22.634Z,6.80
2023-01-13T20:27:50.574Z,6.80
2023-01-13T20:30:20.253Z,6.80
2023-01-13T20:32:48.116Z,6.90
2023-01-13T20:35:17.087Z,7.00
2023-01-13T20:37:47.702Z,7.00
2023-01-13T20:40:18.323Z,7.10
2023-01-13T20:42:46.497Z,7.20
2023-01-13T20:45:20.528Z,7.20
2023-01-13T20:47:50.314Z,7.20
2023-01-13T20:50:18.563Z,7.20
2023-01-13T20:52:47.241Z,7.10
2023-01-13T20:55:15.752Z,7.10
2023-01-13T20:57:43.732Z,7.10
2023-01-13T21:00:13.142Z,6.90
2023-01-13T21:02:41.885Z,6.80
2023-01-13T21:05:14.178Z,6.70
2023-01-13T21:07:42.064Z,7.40
2023-01-13T21:10:12.172Z,6.50
2023-01-13T21:12:58.012Z,6.60
2023-01-13T21:15:27.362Z,6.60
2023-01-13T21:18:13.128Z,6.60
2023-01-13T21:20:42.776Z,6.60
2023-01-13T21:23:11.680Z,6.70
2023-01-13T21:25:40.304Z,6.70
2023-01-13T21:28:11.390Z,6.70
2023-01-13T21:30:40.564Z,6.70
2023-01-13T21:33:09.184Z,6.60
2023-01-13T21:35:39.759Z,6.60
2023-01-13T21:38:12.125Z,6.60
2023-01-13T21:40:40.087Z,6.60
2023-01-13T21:43:30.065Z,6.60
2023-01-13T21:46:15.657Z,6.60
2023-01-13T21:48:43.558Z,6.60
2023-01-13T21:51:11.394Z,6.60
2023-01-13T21:53:41.052Z,6.50
2023-01-13T21:56:09.008Z,6.40
2023-01-13T21:58:38.713Z,6.40
2023-01-13T22:01:06.931Z,6.30
2023-01-13T22:03:55.476Z,6.30
2023-01-13T22:06:23.470Z,6.30
2023-01-13T22:08:55.444Z,6.30
2023-01-13T22:11:23.398Z,6.20
2023-01-13T22:14:06.823Z,6.20
2023-01-13T22:16:39.304Z,6.30
2023-01-13T22:19:09.177Z,6.30
2023-01-13T22:21:37.397Z,6.40
2023-01-13T22:24:07.544Z,6.30
2023-01-13T22:26:35.627Z,6.30
2023-01-13T22:29:03.505Z,6.30
2023-01-13T22:31:31.729Z,6.30
2023-01-13T22:34:00.037Z,6.30
2023-01-13T22:36:28.029Z,6.40
2023-01-13T22:38:57.150Z,6.50
2023-01-13T22:41:26.686Z,6.60
2023-01-13T22:44:00.592Z,6.50
2023-01-13T22:46:28.470Z,6.50
2023-01-13T22:48:56.676Z,6.40
2023-01-13T22:51:26.468Z,6.40
2023-01-13T22:53:54.912Z,6.30
2023-01-13T22:56:27.262Z,6.70
2023-01-13T22:58:56.093Z,6.40
2023-01-13T23:01:25.883Z,6.40
2023-01-13T23:03:55.049Z,6.50
2023-01-13T23:06:26.238Z,6.50
2023-01-13T23:08:54.547Z,6.60
2023-01-13T23:11:27.455Z,6.60
2023-01-13T23:13:59.585Z,6.60
2023-01-13T23:16:30.565Z,6.50
2023-01-13T23:18:58.825Z,6.40
2023-01-13T23:21:30.099Z,6.30
2023-01-13T23:23:58.864Z,6.30
2023-01-13T23:26:29.675Z,6.20
2023-01-13T23:29:02.259Z,6.10
2023-01-13T23:31:30.429Z,6.10
2023-01-13T23:33:58.806Z,6.20
2023-01-13T23:36:29.128Z,6.20
2023-01-13T23:38:59.897Z,6.10
2023-01-13T23:41:29.550Z,6.20
2023-01-13T23:44:00.468Z,6.20
2023-01-13T23:46:31.096Z,6.20
2023-01-13T23:48:59.338Z,6.20
2023-01-13T23:51:29.877Z,6.30
2023-01-13T23:53:59.439Z,6.40
2023-01-13T23:56:31.738Z,6.50
2023-01-13T23:59:00.546Z,6.60
